createdAt,value
2019-01-27T00:02:03.113Z,-2.63
2019-01-27T00:04:37.405Z,-2.61
2019-01-27T00:07:11.023Z,-2.63
2019-01-27T00:09:47.306Z,-2.66
2019-01-27T00:12:20.403Z,-2.72
2019-01-27T00:14:53.665Z,-2.63
2019-01-27T00:17:32.623Z,-2.55
2019-01-27T00:20:06.615Z,-2.60
2019-01-27T00:22:40.038Z,-2.60
2019-01-27T00:25:25.100Z,-2.59
2019-01-27T00:28:11.677Z,-2.68
2019-01-27T00:30:57.317Z,-2.64
2019-01-27T00:33:38.927Z,-2.54
2019-01-27T00:36:11.995Z,-2.43
2019-01-27T00:38:45.281Z,-2.38
2019-01-27T00:41:18.497Z,-2.39
2019-01-27T00:43:51.810Z,-2.28
2019-01-27T00:46:25.105Z,-2.28
2019-01-27T00:49:00.681Z,-2.31
2019-01-27T00:51:34.043Z,-2.26
2019-01-27T00:54:07.475Z,-2.33
2019-01-27T00:56:41.037Z,-2.41
2019-01-27T00:59:14.083Z,-2.50
2019-01-27T01:01:46.310Z,-2.76
2019-01-27T01:04:19.659Z,-2.69
2019-01-27T01:06:53.460Z,-2.96
2019-01-27T01:09:27.568Z,-2.98
2019-01-27T01:12:01.087Z,-2.96
2019-01-27T01:14:34.118Z,-2.88
2019-01-27T01:17:07.807Z,-2.82
2019-01-27T01:19:41.207Z,-2.82
2019-01-27T01:22:14.220Z,-2.84
2019-01-27T01:24:47.728Z,-2.80
2019-01-27T01:27:33.444Z,-2.86
2019-01-27T01:30:19.662Z,-2.94
2019-01-27T01:33:05.932Z,-2.99
2019-01-27T01:35:50.861Z,-3.12
2019-01-27T01:38:32.834Z,-3.10
2019-01-27T01:41:06.162Z,-3.05
2019-01-27T01:43:39.541Z,-3.06
2019-01-27T01:46:13.305Z,-3.01
2019-01-27T01:48:46.934Z,-3.01
2019-01-27T01:51:20.305Z,-2.99
2019-01-27T01:53:53.734Z,-3.08
2019-01-27T01:56:26.563Z,-3.16
2019-01-27T01:59:00.146Z,-3.20
2019-01-27T02:01:33.485Z,-3.20
2019-01-27T02:04:07.033Z,-3.17
2019-01-27T02:06:40.294Z,-3.27
2019-01-27T02:09:13.744Z,-3.25
2019-01-27T02:11:46.971Z,-3.20
2019-01-27T02:14:20.053Z,-3.25
2019-01-27T02:16:54.301Z,-3.22
2019-01-27T02:19:27.665Z,-3.24
2019-01-27T02:22:01.019Z,-3.23
2019-01-27T02:24:34.228Z,-3.22
2019-01-27T02:27:20.403Z,-3.22
2019-01-27T02:30:03.726Z,-3.21
2019-01-27T02:32:50.527Z,-3.20
2019-01-27T02:35:36.801Z,-3.27
2019-01-27T02:38:22.131Z,-3.28
2019-01-27T02:41:00.938Z,-3.32
2019-01-27T02:43:35.208Z,-3.35
2019-01-27T02:46:08.469Z,-3.30
2019-01-27T02:48:42.093Z,-3.30
2019-01-27T02:51:15.163Z,-3.31
2019-01-27T02:53:48.509Z,-3.46
2019-01-27T02:56:21.659Z,-3.33
2019-01-27T02:58:55.120Z,-3.36
2019-01-27T03:01:28.699Z,-3.34
2019-01-27T03:04:02.099Z,-3.40
2019-01-27T03:06:59.963Z,-3.39
2019-01-27T03:09:44.113Z,-3.42
2019-01-27T03:12:17.287Z,-3.43
2019-01-27T03:14:50.851Z,-3.40
2019-01-27T03:17:24.188Z,-3.56
2019-01-27T03:19:58.735Z,-3.41
2019-01-27T03:22:32.032Z,-3.47
2019-01-27T03:25:05.643Z,-3.38
2019-01-27T03:27:43.547Z,-3.37
2019-01-27T03:30:20.128Z,-3.38
2019-01-27T03:32:53.738Z,-3.39
2019-01-27T03:35:27.156Z,-3.44
2019-01-27T03:38:00.398Z,-3.43
2019-01-27T03:40:33.672Z,-3.44
2019-01-27T03:43:06.832Z,-3.45
2019-01-27T03:45:40.236Z,-3.54
2019-01-27T03:48:14.952Z,-3.74
2019-01-27T03:50:48.159Z,-4.15
2019-01-27T03:53:21.154Z,-4.00
2019-01-27T03:55:53.036Z,-4.37
2019-01-27T03:58:26.124Z,-4.18
2019-01-27T04:00:59.124Z,-3.99
2019-01-27T04:03:30.963Z,-3.86
2019-01-27T04:06:04.158Z,-3.77
2019-01-27T04:08:37.091Z,-3.81
2019-01-27T04:11:09.066Z,-3.79
2019-01-27T04:13:42.017Z,-3.81
2019-01-27T04:16:15.697Z,-3.91
2019-01-27T04:18:49.119Z,-3.92
2019-01-27T04:21:22.272Z,-3.98
2019-01-27T04:23:55.746Z,-3.92
2019-01-27T04:26:29.267Z,-3.88
2019-01-27T04:29:03.443Z,-3.87
2019-01-27T04:31:36.771Z,-3.81
2019-01-27T04:34:09.975Z,-3.91
2019-01-27T04:36:42.969Z,-3.73
2019-01-27T04:39:15.325Z,-3.73
2019-01-27T04:41:48.064Z,-3.64
2019-01-27T04:44:21.210Z,-3.68
2019-01-27T04:46:54.641Z,-3.65
2019-01-27T04:49:28.026Z,-3.58
2019-01-27T04:52:01.343Z,-3.69
2019-01-27T04:54:34.712Z,-3.80
2019-01-27T04:57:08.035Z,-3.62
2019-01-27T04:59:41.395Z,-3.63
2019-01-27T05:02:14.716Z,-3.69
2019-01-27T05:04:47.885Z,-3.66
2019-01-27T05:07:21.145Z,-3.64
2019-01-27T05:09:54.513Z,-3.73
2019-01-27T05:12:27.610Z,-3.60
2019-01-27T05:15:00.918Z,-3.53
2019-01-27T05:17:34.347Z,-3.54
2019-01-27T05:20:08.717Z,-3.50
2019-01-27T05:22:42.171Z,-3.45
2019-01-27T05:25:16.922Z,-3.47
2019-01-27T05:28:01.327Z,-3.44
2019-01-27T05:30:43.213Z,-3.46
2019-01-27T05:33:17.333Z,-3.48
2019-01-27T05:35:50.572Z,-3.54
2019-01-27T05:38:23.693Z,-3.51
2019-01-27T05:40:57.171Z,-3.52
2019-01-27T05:43:30.693Z,-3.52
2019-01-27T05:46:06.702Z,-3.54
2019-01-27T05:48:40.128Z,-3.57
2019-01-27T05:51:13.106Z,-3.64
2019-01-27T05:53:45.093Z,-3.63
2019-01-27T05:56:16.775Z,-3.63
2019-01-27T05:58:48.249Z,-3.63
2019-01-27T06:01:19.982Z,-3.55
2019-01-27T06:03:51.555Z,-3.45
2019-01-27T06:06:23.628Z,-3.34
2019-01-27T06:08:55.231Z,-3.24
2019-01-27T06:11:26.832Z,-3.11
2019-01-27T06:13:59.156Z,-3.04
2019-01-27T06:16:33.928Z,-2.94
2019-01-27T06:19:05.588Z,-2.84
2019-01-27T06:21:37.393Z,-2.82
2019-01-27T06:24:08.830Z,-2.68
2019-01-27T06:26:40.802Z,-2.70
2019-01-27T06:29:12.769Z,-2.65
2019-01-27T06:31:44.077Z,-2.70
2019-01-27T06:34:18.043Z,-2.79
2019-01-27T06:36:49.995Z,-2.91
2019-01-27T06:39:21.361Z,-2.81
2019-01-27T06:41:53.145Z,-2.73
2019-01-27T06:44:24.701Z,-2.63
2019-01-27T06:46:56.730Z,-2.56
2019-01-27T06:49:28.071Z,-2.52
2019-01-27T06:51:59.632Z,-2.56
2019-01-27T06:54:31.235Z,-2.57
2019-01-27T06:57:02.800Z,-2.53
2019-01-27T06:59:44.788Z,-2.55
2019-01-27T07:02:32.726Z,-2.63
2019-01-27T07:05:23.334Z,-2.62
2019-01-27T07:08:11.887Z,-2.62
2019-01-27T07:11:00.864Z,-2.66
2019-01-27T07:13:57.795Z,-2.58
2019-01-27T07:16:53.933Z,-2.44
2019-01-27T07:20:02.366Z,-2.05
2019-01-27T07:22:50.013Z,-1.63
2019-01-27T07:25:38.960Z,-1.18
2019-01-27T07:28:18.721Z,-0.62
2019-01-27T07:31:07.693Z,-0.22
2019-01-27T07:34:00.985Z,0.13
2019-01-27T07:36:49.341Z,0.46
2019-01-27T07:39:42.491Z,0.56
2019-01-27T07:42:35.140Z,0.78
2019-01-27T07:45:26.584Z,1.08
2019-01-27T07:48:25.762Z,1.18
2019-01-27T07:51:19.339Z,1.22
2019-01-27T07:54:09.441Z,1.41
2019-01-27T07:56:55.532Z,1.51
2019-01-27T07:59:46.153Z,1.55
2019-01-27T08:02:42.683Z,1.82
2019-01-27T08:05:28.695Z,2.01
2019-01-27T08:08:22.075Z,2.36
2019-01-27T08:11:12.778Z,2.63
2019-01-27T08:14:05.624Z,2.82
2019-01-27T08:16:47.836Z,2.97
2019-01-27T08:19:41.402Z,3.29
2019-01-27T08:22:22.413Z,3.65
2019-01-27T08:25:17.404Z,3.91
2019-01-27T08:28:10.970Z,4.03
2019-01-27T08:30:59.337Z,4.25
2019-01-27T08:33:50.744Z,4.53
2019-01-27T08:36:38.086Z,4.77
2019-01-27T08:39:36.578Z,5.04
2019-01-27T08:42:45.205Z,5.35
2019-01-27T08:45:25.270Z,5.58
2019-01-27T08:47:57.040Z,5.96
2019-01-27T08:50:28.894Z,5.92
2019-01-27T08:53:00.410Z,6.29
2019-01-27T08:55:32.322Z,6.49
2019-01-27T08:58:12.755Z,6.95
2019-01-27T09:01:04.301Z,6.89
2019-01-27T09:03:59.120Z,6.98
2019-01-27T09:10:00.274Z,6.80
2019-01-27T09:12:54.622Z,7.46
2019-01-27T09:16:06.359Z,6.56
2019-01-27T09:19:07.739Z,7.39
2019-01-27T09:22:03.287Z,7.61
2019-01-27T09:25:09.775Z,7.37
2019-01-27T09:28:03.399Z,7.30
2019-01-27T09:31:28.208Z,7.80
2019-01-27T09:34:23.544Z,7.92
2019-01-27T09:37:32.455Z,7.84
2019-01-27T09:40:38.976Z,7.99
2019-01-27T09:43:34.782Z,7.93
2019-01-27T09:46:36.198Z,7.74
2019-01-27T09:49:40.808Z,7.43
2019-01-27T09:52:22.603Z,7.55
2019-01-27T09:55:05.105Z,7.92
2019-01-27T09:58:06.039Z,8.08
2019-01-27T10:01:06.382Z,8.43
2019-01-27T10:04:05.887Z,8.83
2019-01-27T10:06:57.611Z,9.02
2019-01-27T10:09:52.031Z,9.08
2019-01-27T10:12:50.559Z,9.22
2019-01-27T10:15:43.065Z,9.44
2019-01-27T10:18:38.287Z,9.42
2019-01-27T10:21:29.911Z,9.39
2019-01-27T10:24:26.134Z,9.38
2019-01-27T10:27:38.266Z,9.55
2019-01-27T10:30:44.317Z,9.53
2019-01-27T10:33:54.826Z,9.72
2019-01-27T10:36:50.842Z,9.71
2019-01-27T10:40:00.701Z,9.72
2019-01-27T10:43:06.802Z,10.13
2019-01-27T10:46:23.699Z,10.38
2019-01-27T10:49:27.503Z,10.44
2019-01-27T10:52:33.477Z,10.30
2019-01-27T10:55:32.515Z,10.21
2019-01-27T10:58:42.053Z,10.39
2019-01-27T11:01:35.077Z,10.26
2019-01-27T11:04:40.334Z,10.21
2019-01-27T11:07:38.807Z,9.79
2019-01-27T11:10:31.379Z,9.76
2019-01-27T11:13:24.071Z,10.00
2019-01-27T11:16:28.467Z,9.67
2019-01-27T11:19:17.879Z,10.07
2019-01-27T11:22:10.349Z,10.22
2019-01-27T11:25:02.556Z,10.08
2019-01-27T11:27:55.186Z,10.22
2019-01-27T11:30:58.328Z,10.44
2019-01-27T11:33:52.226Z,10.41
2019-01-27T11:36:53.109Z,10.16
2019-01-27T11:39:44.955Z,10.67
2019-01-27T11:42:30.333Z,10.69
2019-01-27T11:45:22.225Z,10.28
2019-01-27T11:48:15.297Z,10.68
2019-01-27T11:50:54.545Z,10.85
2019-01-27T11:53:28.485Z,10.74
2019-01-27T11:56:03.186Z,11.01
2019-01-27T11:58:37.199Z,10.82
2019-01-27T12:01:14.538Z,10.85
2019-01-27T12:03:47.981Z,10.11
2019-01-27T12:06:23.581Z,9.70
2019-01-27T12:08:57.421Z,8.83
2019-01-27T12:11:31.001Z,8.61
2019-01-27T12:14:06.161Z,8.25
2019-01-27T12:16:39.540Z,7.82
2019-01-27T12:19:12.990Z,7.83
2019-01-27T12:21:46.471Z,7.93
2019-01-27T12:24:21.024Z,7.80
2019-01-27T12:26:54.994Z,7.78
2019-01-27T12:29:30.182Z,7.85
2019-01-27T12:32:14.570Z,7.86
2019-01-27T12:34:49.758Z,7.49
2019-01-27T12:37:33.032Z,7.92
2019-01-27T12:40:06.013Z,7.79
2019-01-27T12:42:39.071Z,7.98
2019-01-27T12:45:14.152Z,8.01
2019-01-27T12:47:47.787Z,7.79
2019-01-27T12:50:22.179Z,7.87
2019-01-27T12:52:55.105Z,7.65
2019-01-27T12:55:29.139Z,7.81
2019-01-27T12:58:02.184Z,7.80
2019-01-27T13:00:46.013Z,7.92
2019-01-27T13:03:19.329Z,7.95
2019-01-27T13:05:53.081Z,7.94
2019-01-27T13:08:26.486Z,8.06
2019-01-27T13:11:00.377Z,7.91
2019-01-27T13:13:34.214Z,7.91
2019-01-27T13:16:08.813Z,7.77
2019-01-27T13:18:42.435Z,7.83
2019-01-27T13:21:17.523Z,7.81
2019-01-27T13:23:51.743Z,7.79
2019-01-27T13:26:25.171Z,7.97
2019-01-27T13:29:01.013Z,8.26
2019-01-27T13:31:34.979Z,8.99
2019-01-27T13:34:20.643Z,9.66
2019-01-27T13:37:06.893Z,9.81
2019-01-27T13:39:40.921Z,9.40
2019-01-27T13:42:15.095Z,9.12
2019-01-27T13:44:48.991Z,9.13
2019-01-27T13:47:22.768Z,9.80
2019-01-27T13:49:59.225Z,10.07
2019-01-27T13:52:32.755Z,10.18
2019-01-27T13:55:06.432Z,10.30
2019-01-27T13:57:40.031Z,10.29
2019-01-27T14:00:19.354Z,10.52
2019-01-27T14:02:52.895Z,10.31
2019-01-27T14:05:26.686Z,10.01
2019-01-27T14:08:00.697Z,9.58
2019-01-27T14:10:35.464Z,9.43
2019-01-27T14:13:09.123Z,9.17
2019-01-27T14:15:42.846Z,8.85
2019-01-27T14:18:18.015Z,8.48
2019-01-27T14:20:56.810Z,8.29
2019-01-27T14:23:30.513Z,8.32
2019-01-27T14:26:04.124Z,8.34
2019-01-27T14:28:38.891Z,8.63
2019-01-27T14:31:12.544Z,8.81
2019-01-27T14:33:58.856Z,8.78
2019-01-27T14:36:44.379Z,8.77
2019-01-27T14:39:25.564Z,8.40
2019-01-27T14:41:59.171Z,8.35
2019-01-27T14:44:33.042Z,8.29
2019-01-27T14:47:06.263Z,8.27
2019-01-27T14:49:40.011Z,8.17
2019-01-27T14:52:13.661Z,8.10
2019-01-27T14:54:47.015Z,7.97
2019-01-27T14:57:19.454Z,7.84
2019-01-27T14:59:54.387Z,7.77
2019-01-27T15:02:28.405Z,7.60
2019-01-27T15:05:02.131Z,7.44
2019-01-27T15:07:36.857Z,7.27
2019-01-27T15:10:13.101Z,7.00
2019-01-27T15:12:49.782Z,6.69
2019-01-27T15:15:23.617Z,6.39
2019-01-27T15:17:57.896Z,6.22
2019-01-27T15:20:34.050Z,5.83
2019-01-27T15:23:07.925Z,5.81
2019-01-27T15:25:41.663Z,5.65
2019-01-27T15:28:15.042Z,5.20
2019-01-27T15:30:49.292Z,5.19
2019-01-27T15:33:26.343Z,4.92
2019-01-27T15:36:01.101Z,3.77
2019-01-27T15:38:35.041Z,3.10
2019-01-27T15:41:08.696Z,3.06
2019-01-27T15:43:48.573Z,2.69
2019-01-27T15:46:18.506Z,2.48
2019-01-27T15:48:52.372Z,2.37
2019-01-27T15:51:28.099Z,2.42
2019-01-27T15:54:01.893Z,2.15
2019-01-27T15:56:35.552Z,2.41
2019-01-27T15:59:09.162Z,2.50
2019-01-27T16:01:44.266Z,2.33
2019-01-27T16:04:18.751Z,2.31
2019-01-27T16:06:52.448Z,2.21
2019-01-27T16:09:28.482Z,2.15
2019-01-27T16:12:02.210Z,2.14
2019-01-27T16:14:36.672Z,2.03
2019-01-27T16:17:10.678Z,2.05
2019-01-27T16:19:44.870Z,1.83
2019-01-27T16:22:18.410Z,2.02
2019-01-27T16:24:53.157Z,2.01
2019-01-27T16:27:26.707Z,2.00
2019-01-27T16:30:16.903Z,1.92
2019-01-27T16:33:00.374Z,1.82
2019-01-27T16:35:42.603Z,1.81
2019-01-27T16:38:29.477Z,1.73
2019-01-27T16:41:11.604Z,1.69
2019-01-27T16:43:58.048Z,1.33
2019-01-27T16:46:32.717Z,1.40
2019-01-27T16:49:07.049Z,1.29
2019-01-27T16:51:40.615Z,1.32
2019-01-27T16:54:32.640Z,1.28
2019-01-27T16:57:10.324Z,1.08
2019-01-27T16:59:43.804Z,1.27
2019-01-27T17:02:17.844Z,1.26
2019-01-27T17:04:52.384Z,1.31
2019-01-27T17:07:26.656Z,1.25
2019-01-27T17:10:01.236Z,1.30
2019-01-27T17:12:35.391Z,1.23
2019-01-27T17:15:10.410Z,1.34
2019-01-27T17:17:44.864Z,1.28
2019-01-27T17:20:19.982Z,1.33
2019-01-27T17:22:54.669Z,1.31
2019-01-27T17:25:29.017Z,1.32
2019-01-27T17:28:01.900Z,1.29
2019-01-27T17:30:36.293Z,1.32
2019-01-27T17:33:10.659Z,1.32
2019-01-27T17:35:50.351Z,1.39
2019-01-27T17:38:24.101Z,1.40
2019-01-27T17:40:58.122Z,1.35
2019-01-27T17:43:31.744Z,1.36
2019-01-27T17:46:06.534Z,1.39
2019-01-27T17:48:40.239Z,1.41
2019-01-27T17:51:13.537Z,1.45
2019-01-27T17:53:58.518Z,1.37
2019-01-27T17:56:32.015Z,1.32
2019-01-27T17:59:24.812Z,0.98
2019-01-27T18:02:19.247Z,1.15
2019-01-27T18:05:12.818Z,1.14
2019-01-27T18:08:00.528Z,1.11
2019-01-27T18:10:40.676Z,1.10
2019-01-27T18:13:38.080Z,0.98
2019-01-27T18:16:16.944Z,1.06
2019-01-27T18:18:51.523Z,1.06
2019-01-27T18:21:24.627Z,1.08
2019-01-27T18:23:57.749Z,1.12
2019-01-27T18:26:31.047Z,1.12
2019-01-27T18:29:04.782Z,1.07
2019-01-27T18:31:38.590Z,1.08
2019-01-27T18:34:12.599Z,1.06
2019-01-27T18:36:58.395Z,0.91
2019-01-27T18:39:45.030Z,0.92
2019-01-27T18:42:26.796Z,0.99
2019-01-27T18:45:00.485Z,0.93
2019-01-27T18:47:44.079Z,0.89
2019-01-27T18:50:22.056Z,0.90
2019-01-27T18:53:24.185Z,0.73
2019-01-27T18:56:17.010Z,0.85
2019-01-27T18:59:01.053Z,0.83
2019-01-27T19:01:54.118Z,0.72
2019-01-27T19:04:58.046Z,0.70
2019-01-27T19:07:52.845Z,0.75
2019-01-27T19:10:54.481Z,0.67
2019-01-27T19:13:49.719Z,0.66
2019-01-27T19:16:33.453Z,0.56
2019-01-27T19:19:29.576Z,0.56
2019-01-27T19:22:25.943Z,0.58
2019-01-27T19:25:28.097Z,0.54
2019-01-27T19:28:29.571Z,0.50
2019-01-27T19:31:27.849Z,0.47
2019-01-27T19:34:24.531Z,0.44
2019-01-27T19:37:19.108Z,0.49
2019-01-27T19:40:15.044Z,0.40
2019-01-27T19:43:12.400Z,0.39
2019-01-27T19:46:07.529Z,0.32
2019-01-27T19:48:56.685Z,0.26
2019-01-27T19:55:20.996Z,0.29
2019-01-27T19:58:19.739Z,0.24
2019-01-27T20:01:07.390Z,0.18
2019-01-27T20:04:00.175Z,0.09
2019-01-27T20:07:00.828Z,0.02
2019-01-27T20:10:11.574Z,-0.07
2019-01-27T20:13:08.634Z,-0.06
2019-01-27T20:15:59.700Z,0.11
2019-01-27T20:19:07.392Z,0.10
2019-01-27T20:21:59.970Z,-0.09
2019-01-27T20:24:58.658Z,-0.12
2019-01-27T20:27:59.200Z,-0.14
2019-01-27T20:31:00.626Z,-0.17
2019-01-27T20:34:03.006Z,-0.25
2019-01-27T20:37:08.055Z,-0.26
2019-01-27T20:40:10.127Z,-0.24
2019-01-27T20:43:15.678Z,-0.22
2019-01-27T20:46:17.642Z,-0.37
2019-01-27T20:49:15.666Z,-0.43
2019-01-27T20:52:20.550Z,-0.50
2019-01-27T20:55:21.391Z,-0.59
2019-01-27T20:58:02.086Z,-0.53
2019-01-27T21:00:50.590Z,-0.63
2019-01-27T21:03:43.613Z,-0.57
2019-01-27T21:06:32.401Z,-0.59
2019-01-27T21:09:27.484Z,-0.80
2019-01-27T21:12:20.425Z,-0.63
2019-01-27T21:15:11.048Z,-0.66
2019-01-27T21:17:58.852Z,-0.72
2019-01-27T21:20:32.677Z,-0.65
2019-01-27T21:23:05.917Z,-0.64
2019-01-27T21:25:38.238Z,-0.64
2019-01-27T21:28:11.648Z,-0.69
2019-01-27T21:30:44.690Z,-0.63
2019-01-27T21:33:17.016Z,-0.58
2019-01-27T21:35:51.479Z,-0.67
2019-01-27T21:38:34.329Z,-0.78
2019-01-27T21:41:07.846Z,-0.78
2019-01-27T21:43:50.604Z,-0.78
2019-01-27T21:46:25.403Z,-0.77
2019-01-27T21:48:59.502Z,-0.71
2019-01-27T21:51:33.128Z,-0.81
2019-01-27T21:54:08.029Z,-0.80
2019-01-27T21:56:41.112Z,-0.79
2019-01-27T21:59:13.324Z,-0.81
2019-01-27T22:01:46.631Z,-0.81
2019-01-27T22:04:20.504Z,-0.83
2019-01-27T22:06:53.709Z,-0.72
2019-01-27T22:09:26.939Z,-0.82
2019-01-27T22:12:00.197Z,-0.79
2019-01-27T22:14:33.443Z,-0.86
2019-01-27T22:17:07.721Z,-0.88
2019-01-27T22:19:42.115Z,-0.93
2019-01-27T22:22:15.476Z,-1.01
2019-01-27T22:24:49.213Z,-1.14
2019-01-27T22:27:23.797Z,-1.20
2019-01-27T22:29:57.577Z,-1.25
2019-01-27T22:32:30.975Z,-1.24
2019-01-27T22:35:04.562Z,-1.31
2019-01-27T22:37:50.783Z,-1.35
2019-01-27T22:40:34.307Z,-1.32
2019-01-27T22:43:07.670Z,-1.30
2019-01-27T22:45:41.191Z,-1.21
2019-01-27T22:48:15.599Z,-1.31
2019-01-27T22:50:48.849Z,-1.22
2019-01-27T22:53:22.346Z,-1.26
2019-01-27T22:55:55.609Z,-1.18
2019-01-27T22:58:29.189Z,-1.11
2019-01-27T23:01:14.914Z,-1.05
2019-01-27T23:03:51.381Z,-1.01
2019-01-27T23:06:24.201Z,-1.25
2019-01-27T23:08:57.621Z,-1.22
2019-01-27T23:11:30.757Z,-1.04
2019-01-27T23:14:04.165Z,-1.02
2019-01-27T23:16:37.586Z,-1.05
2019-01-27T23:19:10.815Z,-0.94
2019-01-27T23:21:45.307Z,-1.50
2019-01-27T23:24:18.319Z,-1.23
2019-01-27T23:26:52.739Z,-1.11
2019-01-27T23:29:27.397Z,-0.94
2019-01-27T23:32:01.187Z,-0.96
2019-01-27T23:34:34.593Z,-1.03
2019-01-27T23:37:08.163Z,-1.00
2019-01-27T23:39:54.078Z,-1.38
2019-01-27T23:42:38.261Z,-1.47
2019-01-27T23:45:17.165Z,-1.19
2019-01-27T23:47:50.466Z,-1.13
2019-01-27T23:50:23.669Z,-1.07
2019-01-27T23:52:56.733Z,-0.91
2019-01-27T23:55:28.861Z,-1.04
2019-01-27T23:58:02.244Z,-0.93
